sensor_id;sensor_type;location;lat;lon;timestamp;P1;durP1;ratioP1;P2;durP2;ratioP2
75437;SDS011;64015;49.392;15.582;2023-05-07T00:00:39;12.73;;;7.57;;
75437;SDS011;64015;49.392;15.582;2023-05-07T00:03:19;15.10;;;8.32;;
75437;SDS011;64015;49.392;15.582;2023-05-07T00:05:45;15.52;;;7.95;;
75437;SDS011;64015;49.392;15.582;2023-05-07T00:08:11;15.95;;;8.88;;
75437;SDS011;64015;49.392;15.582;2023-05-07T00:10:37;15.73;;;8.02;;
75437;SDS011;64015;49.392;15.582;2023-05-07T00:13:02;17.45;;;8.60;;
75437;SDS011;64015;49.392;15.582;2023-05-07T00:15:28;12.80;;;7.93;;
75437;SDS011;64015;49.392;15.582;2023-05-07T00:17:55;15.48;;;7.88;;
75437;SDS011;64015;49.392;15.582;2023-05-07T00:20:21;14.05;;;8.40;;
75437;SDS011;64015;49.392;15.582;2023-05-07T00:22:46;13.50;;;7.75;;
75437;SDS011;64015;49.392;15.582;2023-05-07T00:25:12;12.77;;;7.13;;
75437;SDS011;64015;49.392;15.582;2023-05-07T00:27:38;15.43;;;7.97;;
75437;SDS011;64015;49.392;15.582;2023-05-07T00:30:04;14.13;;;8.02;;
75437;SDS011;64015;49.392;15.582;2023-05-07T00:32:30;15.00;;;7.65;;
75437;SDS011;64015;49.392;15.582;2023-05-07T00:34:55;16.95;;;8.50;;
75437;SDS011;64015;49.392;15.582;2023-05-07T00:37:21;17.52;;;9.50;;
75437;SDS011;64015;49.392;15.582;2023-05-07T00:39:47;15.57;;;9.10;;
75437;SDS011;64015;49.392;15.582;2023-05-07T00:42:12;18.10;;;9.57;;
75437;SDS011;64015;49.392;15.582;2023-05-07T00:44:38;15.48;;;9.90;;
75437;SDS011;64015;49.392;15.582;2023-05-07T00:47:03;17.45;;;9.10;;
75437;SDS011;64015;49.392;15.582;2023-05-07T00:49:36;20.17;;;10.55;;
75437;SDS011;64015;49.392;15.582;2023-05-07T00:52:05;17.95;;;8.35;;
75437;SDS011;64015;49.392;15.582;2023-05-07T00:54:32;20.58;;;9.38;;
75437;SDS011;64015;49.392;15.582;2023-05-07T00:56:59;18.58;;;9.95;;
75437;SDS011;64015;49.392;15.582;2023-05-07T00:59:27;18.63;;;10.13;;
75437;SDS011;64015;49.392;15.582;2023-05-07T01:01:52;19.00;;;9.57;;
75437;SDS011;64015;49.392;15.582;2023-05-07T01:04:18;21.67;;;9.77;;
75437;SDS011;64015;49.392;15.582;2023-05-07T01:06:44;19.48;;;9.38;;
75437;SDS011;64015;49.392;15.582;2023-05-07T01:09:10;20.00;;;9.95;;
75437;SDS011;64015;49.392;15.582;2023-05-07T01:11:37;19.63;;;10.30;;
75437;SDS011;64015;49.392;15.582;2023-05-07T01:14:03;18.13;;;9.23;;
75437;SDS011;64015;49.392;15.582;2023-05-07T01:16:29;17.95;;;10.18;;
75437;SDS011;64015;49.392;15.582;2023-05-07T01:18:56;23.95;;;11.45;;
75437;SDS011;64015;49.392;15.582;2023-05-07T01:21:24;22.95;;;11.63;;
75437;SDS011;64015;49.392;15.582;2023-05-07T01:23:52;21.35;;;11.05;;
75437;SDS011;64015;49.392;15.582;2023-05-07T01:26:18;20.65;;;11.32;;
75437;SDS011;64015;49.392;15.582;2023-05-07T01:28:45;24.13;;;12.45;;
75437;SDS011;64015;49.392;15.582;2023-05-07T01:31:11;22.13;;;12.10;;
75437;SDS011;64015;49.392;15.582;2023-05-07T01:33:39;24.85;;;11.70;;
75437;SDS011;64015;49.392;15.582;2023-05-07T01:38:34;25.27;;;12.77;;
75437;SDS011;64015;49.392;15.582;2023-05-07T01:41:01;22.70;;;12.60;;
75437;SDS011;64015;49.392;15.582;2023-05-07T01:43:28;26.60;;;13.48;;
75437;SDS011;64015;49.392;15.582;2023-05-07T01:45:55;28.42;;;12.43;;
75437;SDS011;64015;49.392;15.582;2023-05-07T01:48:24;30.45;;;13.07;;
75437;SDS011;64015;49.392;15.582;2023-05-07T01:50:50;28.65;;;13.15;;
75437;SDS011;64015;49.392;15.582;2023-05-07T01:53:17;28.75;;;12.88;;
75437;SDS011;64015;49.392;15.582;2023-05-07T01:55:43;29.67;;;12.82;;
75437;SDS011;64015;49.392;15.582;2023-05-07T01:58:08;30.60;;;12.88;;
75437;SDS011;64015;49.392;15.582;2023-05-07T02:00:34;30.23;;;12.98;;
75437;SDS011;64015;49.392;15.582;2023-05-07T02:03:00;32.33;;;14.60;;
75437;SDS011;64015;49.392;15.582;2023-05-07T02:05:25;30.15;;;13.88;;
75437;SDS011;64015;49.392;15.582;2023-05-07T02:07:51;31.77;;;14.65;;
75437;SDS011;64015;49.392;15.582;2023-05-07T02:10:17;30.40;;;14.05;;
75437;SDS011;64015;49.392;15.582;2023-05-07T02:12:43;30.25;;;13.73;;
75437;SDS011;64015;49.392;15.582;2023-05-07T02:15:08;31.23;;;14.13;;
75437;SDS011;64015;49.392;15.582;2023-05-07T02:17:39;38.13;;;15.93;;
75437;SDS011;64015;49.392;15.582;2023-05-07T02:20:22;33.25;;;13.70;;
75437;SDS011;64015;49.392;15.582;2023-05-07T02:22:48;35.38;;;15.65;;
75437;SDS011;64015;49.392;15.582;2023-05-07T02:25:13;33.40;;;13.80;;
75437;SDS011;64015;49.392;15.582;2023-05-07T02:27:39;31.50;;;13.07;;
75437;SDS011;64015;49.392;15.582;2023-05-07T02:30:05;31.98;;;13.88;;
75437;SDS011;64015;49.392;15.582;2023-05-07T02:32:31;34.53;;;15.18;;
75437;SDS011;64015;49.392;15.582;2023-05-07T02:34:57;33.20;;;15.35;;
75437;SDS011;64015;49.392;15.582;2023-05-07T02:37:22;33.47;;;14.70;;
75437;SDS011;64015;49.392;15.582;2023-05-07T02:39:48;33.15;;;14.40;;
75437;SDS011;64015;49.392;15.582;2023-05-07T02:42:14;31.55;;;14.40;;
75437;SDS011;64015;49.392;15.582;2023-05-07T02:44:39;30.67;;;14.57;;
75437;SDS011;64015;49.392;15.582;2023-05-07T02:47:05;35.58;;;14.82;;
75437;SDS011;64015;49.392;15.582;2023-05-07T02:49:33;33.85;;;14.15;;
75437;SDS011;64015;49.392;15.582;2023-05-07T02:51:59;35.08;;;15.10;;
75437;SDS011;64015;49.392;15.582;2023-05-07T02:54:24;35.97;;;15.48;;
75437;SDS011;64015;49.392;15.582;2023-05-07T02:56:50;41.65;;;16.15;;
75437;SDS011;64015;49.392;15.582;2023-05-07T02:59:16;35.20;;;15.25;;
75437;SDS011;64015;49.392;15.582;2023-05-07T03:01:42;38.05;;;15.02;;
75437;SDS011;64015;49.392;15.582;2023-05-07T03:04:09;37.13;;;15.60;;
75437;SDS011;64015;49.392;15.582;2023-05-07T03:06:36;36.42;;;14.32;;
75437;SDS011;64015;49.392;15.582;2023-05-07T03:09:02;30.70;;;14.02;;
75437;SDS011;64015;49.392;15.582;2023-05-07T03:11:28;31.08;;;12.63;;
75437;SDS011;64015;49.392;15.582;2023-05-07T03:13:53;33.00;;;13.73;;
75437;SDS011;64015;49.392;15.582;2023-05-07T03:16:19;29.02;;;13.32;;
75437;SDS011;64015;49.392;15.582;2023-05-07T03:18:45;32.20;;;13.48;;
75437;SDS011;64015;49.392;15.582;2023-05-07T03:21:11;31.80;;;13.57;;
75437;SDS011;64015;49.392;15.582;2023-05-07T03:23:37;30.95;;;13.23;;
75437;SDS011;64015;49.392;15.582;2023-05-07T03:26:03;28.05;;;12.98;;
75437;SDS011;64015;49.392;15.582;2023-05-07T03:28:28;26.70;;;13.05;;
75437;SDS011;64015;49.392;15.582;2023-05-07T03:30:54;28.30;;;12.88;;
75437;SDS011;64015;49.392;15.582;2023-05-07T03:33:20;28.05;;;13.65;;
75437;SDS011;64015;49.392;15.582;2023-05-07T03:35:45;27.65;;;12.65;;
75437;SDS011;64015;49.392;15.582;2023-05-07T03:38:11;29.70;;;12.98;;
75437;SDS011;64015;49.392;15.582;2023-05-07T03:40:36;29.83;;;13.00;;
75437;SDS011;64015;49.392;15.582;2023-05-07T03:43:02;26.65;;;11.82;;
75437;SDS011;64015;49.392;15.582;2023-05-07T03:45:28;30.98;;;13.23;;
75437;SDS011;64015;49.392;15.582;2023-05-07T03:47:54;32.85;;;13.25;;
75437;SDS011;64015;49.392;15.582;2023-05-07T03:50:19;32.65;;;15.25;;
75437;SDS011;64015;49.392;15.582;2023-05-07T03:52:45;33.35;;;14.15;;
75437;SDS011;64015;49.392;15.582;2023-05-07T03:55:11;30.23;;;12.88;;
75437;SDS011;64015;49.392;15.582;2023-05-07T03:57:36;32.28;;;13.73;;
75437;SDS011;64015;49.392;15.582;2023-05-07T04:00:02;32.97;;;14.27;;
75437;SDS011;64015;49.392;15.582;2023-05-07T04:02:29;31.75;;;13.60;;
75437;SDS011;64015;49.392;15.582;2023-05-07T04:04:55;29.23;;;13.25;;
75437;SDS011;64015;49.392;15.582;2023-05-07T04:07:21;31.80;;;14.65;;
75437;SDS011;64015;49.392;15.582;2023-05-07T04:09:47;31.30;;;14.00;;
75437;SDS011;64015;49.392;15.582;2023-05-07T04:12:13;35.67;;;13.88;;
75437;SDS011;64015;49.392;15.582;2023-05-07T04:14:38;36.72;;;14.07;;
75437;SDS011;64015;49.392;15.582;2023-05-07T04:17:04;32.25;;;13.50;;
75437;SDS011;64015;49.392;15.582;2023-05-07T04:19:32;31.27;;;14.40;;
75437;SDS011;64015;49.392;15.582;2023-05-07T04:21:58;27.90;;;13.13;;
75437;SDS011;64015;49.392;15.582;2023-05-07T04:24:24;31.42;;;12.02;;
75437;SDS011;64015;49.392;15.582;2023-05-07T04:26:50;28.05;;;13.57;;
75437;SDS011;64015;49.392;15.582;2023-05-07T04:29:16;27.80;;;12.50;;
75437;SDS011;64015;49.392;15.582;2023-05-07T04:31:42;29.00;;;12.57;;
75437;SDS011;64015;49.392;15.582;2023-05-07T04:34:12;29.02;;;12.48;;
75437;SDS011;64015;49.392;15.582;2023-05-07T04:36:38;28.23;;;13.38;;
75437;SDS011;64015;49.392;15.582;2023-05-07T04:39:04;34.95;;;13.40;;
75437;SDS011;64015;49.392;15.582;2023-05-07T04:41:29;32.92;;;12.93;;
75437;SDS011;64015;49.392;15.582;2023-05-07T04:43:55;33.55;;;14.05;;
75437;SDS011;64015;49.392;15.582;2023-05-07T04:46:22;29.85;;;14.15;;
75437;SDS011;64015;49.392;15.582;2023-05-07T04:48:49;30.58;;;13.55;;
75437;SDS011;64015;49.392;15.582;2023-05-07T04:51:14;27.92;;;13.23;;
75437;SDS011;64015;49.392;15.582;2023-05-07T04:53:40;32.25;;;15.00;;
75437;SDS011;64015;49.392;15.582;2023-05-07T04:56:06;30.33;;;13.45;;
75437;SDS011;64015;49.392;15.582;2023-05-07T04:58:32;25.55;;;12.88;;
75437;SDS011;64015;49.392;15.582;2023-05-07T05:00:58;28.70;;;13.60;;
75437;SDS011;64015;49.392;15.582;2023-05-07T05:03:28;27.98;;;12.27;;
75437;SDS011;64015;49.392;15.582;2023-05-07T05:05:55;28.52;;;11.75;;
75437;SDS011;64015;49.392;15.582;2023-05-07T05:08:22;30.08;;;12.57;;
75437;SDS011;64015;49.392;15.582;2023-05-07T05:10:51;32.63;;;12.27;;
75437;SDS011;64015;49.392;15.582;2023-05-07T05:13:16;21.92;;;11.40;;
75437;SDS011;64015;49.392;15.582;2023-05-07T05:15:42;26.92;;;12.05;;
75437;SDS011;64015;49.392;15.582;2023-05-07T05:18:08;25.92;;;11.43;;
75437;SDS011;64015;49.392;15.582;2023-05-07T05:20:34;27.42;;;10.93;;
75437;SDS011;64015;49.392;15.582;2023-05-07T05:23:00;24.42;;;11.20;;
75437;SDS011;64015;49.392;15.582;2023-05-07T05:25:25;25.75;;;11.27;;
75437;SDS011;64015;49.392;15.582;2023-05-07T05:27:51;22.63;;;10.38;;
75437;SDS011;64015;49.392;15.582;2023-05-07T05:30:16;22.42;;;10.48;;
75437;SDS011;64015;49.392;15.582;2023-05-07T05:32:42;26.45;;;11.57;;
75437;SDS011;64015;49.392;15.582;2023-05-07T05:35:08;27.65;;;11.88;;
75437;SDS011;64015;49.392;15.582;2023-05-07T05:37:34;25.48;;;11.45;;
75437;SDS011;64015;49.392;15.582;2023-05-07T05:39:59;24.88;;;11.98;;
75437;SDS011;64015;49.392;15.582;2023-05-07T05:42:25;22.52;;;10.30;;
75437;SDS011;64015;49.392;15.582;2023-05-07T05:44:51;22.55;;;10.35;;
75437;SDS011;64015;49.392;15.582;2023-05-07T05:47:17;23.77;;;10.95;;
75437;SDS011;64015;49.392;15.582;2023-05-07T05:49:42;22.80;;;10.88;;
75437;SDS011;64015;49.392;15.582;2023-05-07T05:52:09;18.55;;;9.00;;
75437;SDS011;64015;49.392;15.582;2023-05-07T05:54:37;20.23;;;10.00;;
75437;SDS011;64015;49.392;15.582;2023-05-07T05:57:38;24.30;;;10.15;;
75437;SDS011;64015;49.392;15.582;2023-05-07T06:00:04;18.73;;;9.40;;
75437;SDS011;64015;49.392;15.582;2023-05-07T06:03:07;18.77;;;10.43;;
75437;SDS011;64015;49.392;15.582;2023-05-07T06:05:43;19.77;;;9.10;;
75437;SDS011;64015;49.392;15.582;2023-05-07T06:08:09;18.90;;;9.63;;
75437;SDS011;64015;49.392;15.582;2023-05-07T06:10:35;17.42;;;8.50;;
75437;SDS011;64015;49.392;15.582;2023-05-07T06:13:02;13.75;;;7.93;;
75437;SDS011;64015;49.392;15.582;2023-05-07T06:15:28;21.98;;;9.10;;
75437;SDS011;64015;49.392;15.582;2023-05-07T06:18:03;21.55;;;11.40;;
75437;SDS011;64015;49.392;15.582;2023-05-07T06:20:28;18.15;;;10.25;;
75437;SDS011;64015;49.392;15.582;2023-05-07T06:22:54;19.58;;;9.55;;
75437;SDS011;64015;49.392;15.582;2023-05-07T06:28:31;21.42;;;9.80;;
75437;SDS011;64015;49.392;15.582;2023-05-07T06:31:22;21.17;;;10.50;;
75437;SDS011;64015;49.392;15.582;2023-05-07T06:33:48;24.73;;;11.45;;
75437;SDS011;64015;49.392;15.582;2023-05-07T06:36:17;21.17;;;10.77;;
75437;SDS011;64015;49.392;15.582;2023-05-07T06:38:49;24.48;;;10.55;;
75437;SDS011;64015;49.392;15.582;2023-05-07T06:41:15;26.73;;;11.55;;
75437;SDS011;64015;49.392;15.582;2023-05-07T06:43:41;21.10;;;10.05;;
75437;SDS011;64015;49.392;15.582;2023-05-07T06:46:06;21.83;;;9.60;;
75437;SDS011;64015;49.392;15.582;2023-05-07T06:48:38;21.52;;;10.07;;
75437;SDS011;64015;49.392;15.582;2023-05-07T06:51:04;20.63;;;10.23;;
75437;SDS011;64015;49.392;15.582;2023-05-07T06:53:30;20.38;;;9.43;;
75437;SDS011;64015;49.392;15.582;2023-05-07T06:55:56;19.83;;;10.75;;
75437;SDS011;64015;49.392;15.582;2023-05-07T06:58:22;20.92;;;11.02;;
75437;SDS011;64015;49.392;15.582;2023-05-07T07:00:48;19.63;;;9.75;;
75437;SDS011;64015;49.392;15.582;2023-05-07T07:03:14;19.27;;;10.38;;
75437;SDS011;64015;49.392;15.582;2023-05-07T07:12:57;16.58;;;9.88;;
75437;SDS011;64015;49.392;15.582;2023-05-07T07:15:34;16.65;;;9.48;;
75437;SDS011;64015;49.392;15.582;2023-05-07T07:18:06;14.50;;;8.50;;
75437;SDS011;64015;49.392;15.582;2023-05-07T07:20:32;16.60;;;8.13;;
75437;SDS011;64015;49.392;15.582;2023-05-07T07:23:00;16.60;;;8.38;;
75437;SDS011;64015;49.392;15.582;2023-05-07T07:25:26;16.17;;;8.57;;
75437;SDS011;64015;49.392;15.582;2023-05-07T07:27:52;14.77;;;8.23;;
75437;SDS011;64015;49.392;15.582;2023-05-07T07:30:18;13.75;;;7.45;;
75437;SDS011;64015;49.392;15.582;2023-05-07T07:32:44;13.75;;;7.10;;
75437;SDS011;64015;49.392;15.582;2023-05-07T07:35:10;16.42;;;8.38;;
75437;SDS011;64015;49.392;15.582;2023-05-07T07:37:35;15.15;;;8.40;;
75437;SDS011;64015;49.392;15.582;2023-05-07T07:40:02;16.20;;;7.70;;
75437;SDS011;64015;49.392;15.582;2023-05-07T07:42:28;16.05;;;8.13;;
75437;SDS011;64015;49.392;15.582;2023-05-07T07:45:07;13.73;;;7.07;;
75437;SDS011;64015;49.392;15.582;2023-05-07T07:47:33;12.00;;;6.90;;
75437;SDS011;64015;49.392;15.582;2023-05-07T07:49:59;13.65;;;7.70;;
75437;SDS011;64015;49.392;15.582;2023-05-07T07:52:24;13.43;;;7.05;;
75437;SDS011;64015;49.392;15.582;2023-05-07T07:54:50;12.55;;;6.50;;
75437;SDS011;64015;49.392;15.582;2023-05-07T07:57:22;12.68;;;6.85;;
75437;SDS011;64015;49.392;15.582;2023-05-07T07:59:48;13.45;;;6.78;;
75437;SDS011;64015;49.392;15.582;2023-05-07T08:04:41;10.48;;;5.85;;
75437;SDS011;64015;49.392;15.582;2023-05-07T08:07:10;10.65;;;5.90;;
75437;SDS011;64015;49.392;15.582;2023-05-07T08:09:37;11.93;;;6.13;;
75437;SDS011;64015;49.392;15.582;2023-05-07T08:12:12;10.82;;;5.85;;
75437;SDS011;64015;49.392;15.582;2023-05-07T08:14:38;11.75;;;5.65;;
75437;SDS011;64015;49.392;15.582;2023-05-07T08:17:04;11.20;;;5.85;;
75437;SDS011;64015;49.392;15.582;2023-05-07T08:19:33;10.57;;;6.25;;
75437;SDS011;64015;49.392;15.582;2023-05-07T08:21:58;9.23;;;4.82;;
75437;SDS011;64015;49.392;15.582;2023-05-07T08:24:31;9.57;;;5.50;;
75437;SDS011;64015;49.392;15.582;2023-05-07T08:26:56;9.50;;;5.57;;
75437;SDS011;64015;49.392;15.582;2023-05-07T08:29:22;10.52;;;4.68;;
75437;SDS011;64015;49.392;15.582;2023-05-07T08:31:48;9.77;;;6.35;;
75437;SDS011;64015;49.392;15.582;2023-05-07T08:34:14;8.63;;;4.60;;
75437;SDS011;64015;49.392;15.582;2023-05-07T08:36:39;10.70;;;5.15;;
75437;SDS011;64015;49.392;15.582;2023-05-07T08:39:07;10.48;;;5.10;;
75437;SDS011;64015;49.392;15.582;2023-05-07T08:41:32;9.43;;;5.25;;
75437;SDS011;64015;49.392;15.582;2023-05-07T08:44:03;7.95;;;4.85;;
75437;SDS011;64015;49.392;15.582;2023-05-07T08:46:31;8.85;;;4.82;;
75437;SDS011;64015;49.392;15.582;2023-05-07T08:48:57;9.98;;;5.93;;
75437;SDS011;64015;49.392;15.582;2023-05-07T08:51:23;9.40;;;5.80;;
75437;SDS011;64015;49.392;15.582;2023-05-07T08:53:49;9.07;;;5.15;;
75437;SDS011;64015;49.392;15.582;2023-05-07T08:56:15;7.70;;;4.30;;
75437;SDS011;64015;49.392;15.582;2023-05-07T08:58:43;7.03;;;4.13;;
75437;SDS011;64015;49.392;15.582;2023-05-07T09:01:10;7.85;;;3.70;;
75437;SDS011;64015;49.392;15.582;2023-05-07T09:03:39;7.35;;;4.53;;
75437;SDS011;64015;49.392;15.582;2023-05-07T09:06:05;7.50;;;4.07;;
75437;SDS011;64015;49.392;15.582;2023-05-07T09:08:52;6.95;;;4.28;;
75437;SDS011;64015;49.392;15.582;2023-05-07T09:14:59;6.15;;;4.22;;
75437;SDS011;64015;49.392;15.582;2023-05-07T09:17:28;6.35;;;3.97;;
75437;SDS011;64015;49.392;15.582;2023-05-07T09:19:54;6.55;;;3.92;;
75437;SDS011;64015;49.392;15.582;2023-05-07T09:22:20;6.28;;;3.97;;
75437;SDS011;64015;49.392;15.582;2023-05-07T09:24:47;6.15;;;3.42;;
75437;SDS011;64015;49.392;15.582;2023-05-07T09:27:14;6.32;;;3.70;;
75437;SDS011;64015;49.392;15.582;2023-05-07T09:29:39;5.75;;;3.35;;
75437;SDS011;64015;49.392;15.582;2023-05-07T09:32:05;7.05;;;4.35;;
75437;SDS011;64015;49.392;15.582;2023-05-07T09:34:32;7.30;;;4.30;;
75437;SDS011;64015;49.392;15.582;2023-05-07T09:37:04;6.45;;;4.05;;
75437;SDS011;64015;49.392;15.582;2023-05-07T09:39:40;5.25;;;3.63;;
75437;SDS011;64015;49.392;15.582;2023-05-07T09:42:10;6.38;;;3.55;;
75437;SDS011;64015;49.392;15.582;2023-05-07T09:44:49;7.18;;;4.28;;
75437;SDS011;64015;49.392;15.582;2023-05-07T09:47:18;7.38;;;4.22;;
75437;SDS011;64015;49.392;15.582;2023-05-07T09:49:49;7.38;;;4.45;;
75437;SDS011;64015;49.392;15.582;2023-05-07T09:52:15;6.82;;;3.67;;
75437;SDS011;64015;49.392;15.582;2023-05-07T09:54:42;6.47;;;4.10;;
75437;SDS011;64015;49.392;15.582;2023-05-07T09:57:12;5.90;;;3.20;;
75437;SDS011;64015;49.392;15.582;2023-05-07T09:59:42;6.25;;;3.70;;
75437;SDS011;64015;49.392;15.582;2023-05-07T10:04:35;7.90;;;4.40;;
75437;SDS011;64015;49.392;15.582;2023-05-07T10:07:07;6.97;;;3.70;;
75437;SDS011;64015;49.392;15.582;2023-05-07T10:09:34;6.35;;;3.95;;
75437;SDS011;64015;49.392;15.582;2023-05-07T10:12:04;6.32;;;3.95;;
75437;SDS011;64015;49.392;15.582;2023-05-07T10:14:42;5.43;;;4.00;;
75437;SDS011;64015;49.392;15.582;2023-05-07T10:17:09;5.60;;;3.47;;
75437;SDS011;64015;49.392;15.582;2023-05-07T10:19:37;6.30;;;3.58;;
75437;SDS011;64015;49.392;15.582;2023-05-07T10:22:20;5.18;;;3.05;;
75437;SDS011;64015;49.392;15.582;2023-05-07T10:24:47;6.35;;;2.97;;
75437;SDS011;64015;49.392;15.582;2023-05-07T10:27:17;4.50;;;3.20;;
75437;SDS011;64015;49.392;15.582;2023-05-07T10:32:51;6.18;;;3.33;;
75437;SDS011;64015;49.392;15.582;2023-05-07T10:35:21;5.10;;;3.25;;
75437;SDS011;64015;49.392;15.582;2023-05-07T10:37:58;5.55;;;3.22;;
75437;SDS011;64015;49.392;15.582;2023-05-07T10:40:29;5.38;;;3.45;;
75437;SDS011;64015;49.392;15.582;2023-05-07T10:43:05;5.10;;;3.15;;
75437;SDS011;64015;49.392;15.582;2023-05-07T10:45:33;5.30;;;3.50;;
75437;SDS011;64015;49.392;15.582;2023-05-07T10:48:28;5.57;;;3.63;;
75437;SDS011;64015;49.392;15.582;2023-05-07T10:56:40;5.97;;;3.30;;
75437;SDS011;64015;49.392;15.582;2023-05-07T11:01:58;6.53;;;4.00;;
75437;SDS011;64015;49.392;15.582;2023-05-07T11:04:35;5.40;;;2.95;;
75437;SDS011;64015;49.392;15.582;2023-05-07T11:18:10;4.63;;;3.53;;
75437;SDS011;64015;49.392;15.582;2023-05-07T11:20:50;5.20;;;3.40;;
75437;SDS011;64015;49.392;15.582;2023-05-07T11:26:04;4.32;;;2.75;;
75437;SDS011;64015;49.392;15.582;2023-05-07T11:29:25;4.43;;;3.03;;
75437;SDS011;64015;49.392;15.582;2023-05-07T11:31:56;4.75;;;2.97;;
75437;SDS011;64015;49.392;15.582;2023-05-07T11:34:24;5.35;;;3.30;;
75437;SDS011;64015;49.392;15.582;2023-05-07T11:37:00;5.20;;;3.38;;
75437;SDS011;64015;49.392;15.582;2023-05-07T11:42:42;5.25;;;2.97;;
75437;SDS011;64015;49.392;15.582;2023-05-07T11:45:08;5.93;;;3.10;;
75437;SDS011;64015;49.392;15.582;2023-05-07T11:47:34;5.20;;;3.28;;
75437;SDS011;64015;49.392;15.582;2023-05-07T11:50:04;4.50;;;3.65;;
75437;SDS011;64015;49.392;15.582;2023-05-07T11:52:51;5.72;;;3.53;;
75437;SDS011;64015;49.392;15.582;2023-05-07T11:55:18;4.72;;;3.53;;
75437;SDS011;64015;49.392;15.582;2023-05-07T11:57:50;6.00;;;2.95;;
75437;SDS011;64015;49.392;15.582;2023-05-07T12:00:16;4.93;;;3.63;;
75437;SDS011;64015;49.392;15.582;2023-05-07T12:05:46;5.10;;;3.67;;
75437;SDS011;64015;49.392;15.582;2023-05-07T12:08:21;5.20;;;3.58;;
75437;SDS011;64015;49.392;15.582;2023-05-07T12:10:54;4.35;;;3.20;;
75437;SDS011;64015;49.392;15.582;2023-05-07T12:13:29;4.97;;;3.58;;
75437;SDS011;64015;49.392;15.582;2023-05-07T12:16:04;4.50;;;3.10;;
75437;SDS011;64015;49.392;15.582;2023-05-07T12:18:30;4.15;;;3.15;;
75437;SDS011;64015;49.392;15.582;2023-05-07T12:20:56;4.22;;;3.35;;
75437;SDS011;64015;49.392;15.582;2023-05-07T12:23:23;5.30;;;3.60;;
75437;SDS011;64015;49.392;15.582;2023-05-07T12:28:28;5.25;;;3.10;;
75437;SDS011;64015;49.392;15.582;2023-05-07T12:31:02;4.82;;;3.55;;
75437;SDS011;64015;49.392;15.582;2023-05-07T12:33:34;5.45;;;3.35;;
75437;SDS011;64015;49.392;15.582;2023-05-07T12:36:05;8.55;;;3.80;;
75437;SDS011;64015;49.392;15.582;2023-05-07T12:38:34;5.05;;;3.40;;
75437;SDS011;64015;49.392;15.582;2023-05-07T12:41:07;6.15;;;3.42;;
75437;SDS011;64015;49.392;15.582;2023-05-07T12:43:36;4.63;;;3.42;;
75437;SDS011;64015;49.392;15.582;2023-05-07T12:46:09;8.98;;;3.85;;
75437;SDS011;64015;49.392;15.582;2023-05-07T12:48:37;5.18;;;3.33;;
75437;SDS011;64015;49.392;15.582;2023-05-07T12:51:05;4.15;;;3.50;;
75437;SDS011;64015;49.392;15.582;2023-05-07T12:53:55;5.40;;;3.53;;
75437;SDS011;64015;49.392;15.582;2023-05-07T12:56:28;5.82;;;3.70;;
75437;SDS011;64015;49.392;15.582;2023-05-07T12:58:59;3.80;;;3.08;;
75437;SDS011;64015;49.392;15.582;2023-05-07T13:01:28;4.00;;;3.35;;
75437;SDS011;64015;49.392;15.582;2023-05-07T13:04:17;4.25;;;3.38;;
75437;SDS011;64015;49.392;15.582;2023-05-07T13:06:43;3.80;;;3.40;;
75437;SDS011;64015;49.392;15.582;2023-05-07T13:09:12;5.13;;;4.57;;
75437;SDS011;64015;49.392;15.582;2023-05-07T13:11:40;5.75;;;3.70;;
75437;SDS011;64015;49.392;15.582;2023-05-07T13:14:23;5.90;;;4.03;;
75437;SDS011;64015;49.392;15.582;2023-05-07T13:16:52;5.05;;;3.75;;
75437;SDS011;64015;49.392;15.582;2023-05-07T13:19:20;5.40;;;4.22;;
75437;SDS011;64015;49.392;15.582;2023-05-07T13:21:58;5.05;;;3.15;;
75437;SDS011;64015;49.392;15.582;2023-05-07T13:24:24;5.30;;;4.80;;
75437;SDS011;64015;49.392;15.582;2023-05-07T13:26:56;4.50;;;3.53;;
75437;SDS011;64015;49.392;15.582;2023-05-07T13:29:21;4.25;;;3.83;;
75437;SDS011;64015;49.392;15.582;2023-05-07T13:32:01;4.70;;;3.97;;
75437;SDS011;64015;49.392;15.582;2023-05-07T13:34:27;5.28;;;4.38;;
75437;SDS011;64015;49.392;15.582;2023-05-07T13:39:28;4.85;;;4.35;;
75437;SDS011;64015;49.392;15.582;2023-05-07T13:41:54;5.30;;;3.58;;
75437;SDS011;64015;49.392;15.582;2023-05-07T13:48:14;4.88;;;3.60;;
75437;SDS011;64015;49.392;15.582;2023-05-07T13:50:40;5.30;;;4.60;;
75437;SDS011;64015;49.392;15.582;2023-05-07T13:53:07;4.70;;;4.10;;
75437;SDS011;64015;49.392;15.582;2023-05-07T13:55:39;7.22;;;4.43;;
75437;SDS011;64015;49.392;15.582;2023-05-07T13:58:08;5.45;;;4.70;;
75437;SDS011;64015;49.392;15.582;2023-05-07T14:00:40;6.15;;;4.55;;
75437;SDS011;64015;49.392;15.582;2023-05-07T14:03:06;5.05;;;4.15;;
75437;SDS011;64015;49.392;15.582;2023-05-07T14:05:31;5.82;;;5.13;;
75437;SDS011;64015;49.392;15.582;2023-05-07T14:08:03;4.85;;;3.47;;
75437;SDS011;64015;49.392;15.582;2023-05-07T14:10:30;8.27;;;4.63;;
75437;SDS011;64015;49.392;15.582;2023-05-07T14:13:33;4.95;;;4.45;;
75437;SDS011;64015;49.392;15.582;2023-05-07T14:16:00;5.85;;;5.18;;
75437;SDS011;64015;49.392;15.582;2023-05-07T14:18:26;5.78;;;4.05;;
75437;SDS011;64015;49.392;15.582;2023-05-07T14:20:54;4.82;;;3.60;;
75437;SDS011;64015;49.392;15.582;2023-05-07T14:23:22;4.45;;;3.72;;
75437;SDS011;64015;49.392;15.582;2023-05-07T14:26:10;5.80;;;5.18;;
75437;SDS011;64015;49.392;15.582;2023-05-07T14:28:44;4.70;;;3.88;;
75437;SDS011;64015;49.392;15.582;2023-05-07T14:31:14;4.35;;;3.58;;
75437;SDS011;64015;49.392;15.582;2023-05-07T14:33:48;7.38;;;3.63;;
75437;SDS011;64015;49.392;15.582;2023-05-07T14:36:49;5.35;;;4.68;;
75437;SDS011;64015;49.392;15.582;2023-05-07T14:39:15;5.15;;;4.40;;
75437;SDS011;64015;49.392;15.582;2023-05-07T14:42:01;5.10;;;3.47;;
75437;SDS011;64015;49.392;15.582;2023-05-07T14:44:26;5.32;;;3.70;;
75437;SDS011;64015;49.392;15.582;2023-05-07T14:46:59;4.63;;;3.92;;
75437;SDS011;64015;49.392;15.582;2023-05-07T14:49:24;5.07;;;4.13;;
75437;SDS011;64015;49.392;15.582;2023-05-07T14:51:50;5.18;;;4.57;;
75437;SDS011;64015;49.392;15.582;2023-05-07T14:54:16;5.00;;;3.88;;
75437;SDS011;64015;49.392;15.582;2023-05-07T14:56:42;5.45;;;4.03;;
75437;SDS011;64015;49.392;15.582;2023-05-07T14:59:08;4.93;;;4.43;;
75437;SDS011;64015;49.392;15.582;2023-05-07T15:01:37;5.30;;;4.22;;
75437;SDS011;64015;49.392;15.582;2023-05-07T15:04:03;4.50;;;3.88;;
75437;SDS011;64015;49.392;15.582;2023-05-07T15:06:30;5.00;;;4.35;;
75437;SDS011;64015;49.392;15.582;2023-05-07T15:09:08;4.88;;;3.80;;
75437;SDS011;64015;49.392;15.582;2023-05-07T15:11:34;5.70;;;4.82;;
75437;SDS011;64015;49.392;15.582;2023-05-07T15:14:03;5.53;;;4.60;;
75437;SDS011;64015;49.392;15.582;2023-05-07T15:16:44;5.82;;;4.30;;
75437;SDS011;64015;49.392;15.582;2023-05-07T15:19:22;4.32;;;3.55;;
75437;SDS011;64015;49.392;15.582;2023-05-07T15:21:50;5.30;;;3.92;;
75437;SDS011;64015;49.392;15.582;2023-05-07T15:24:16;6.82;;;4.60;;
75437;SDS011;64015;49.392;15.582;2023-05-07T15:26:56;4.68;;;3.95;;
75437;SDS011;64015;49.392;15.582;2023-05-07T15:29:35;7.97;;;5.00;;
75437;SDS011;64015;49.392;15.582;2023-05-07T15:32:01;5.85;;;4.43;;
75437;SDS011;64015;49.392;15.582;2023-05-07T15:34:27;5.53;;;4.35;;